Time;durP1;ratioP1;P1;durP2;ratioP2;P2;SDS_P1;SDS_P2;PMS_P1;PMS_P2;Temp;Humidity;BMP_temperature;BMP_pressure;BME280_temperature;BME280_humidity;BME280_pressure;Samples;Min_cycle;Max_cycle;Signal;HPM_P1;HPM_P2
2021/04/18 00:00:36;;;;;;;7.40;4.47;;;;;;;3.66;74.44;95632.63;1779457;81;21594;-68
2021/04/18 00:03:05;;;;;;;5.73;4.57;;;;;;;3.70;74.24;95642.65;1779195;81;22298;-68
2021/04/18 00:05:33;;;;;;;7.17;4.00;;;;;;;3.72;74.09;95637.45;1779714;81;21520;-68
2021/04/18 00:08:03;;;;;;;7.27;3.93;;;;;;;3.73;73.63;95641.80;1779208;81;21280;-68
2021/04/18 00:10:35;;;;;;;6.03;4.10;;;;;;;3.72;73.47;95643.54;1779205;81;21308;-68
2021/04/18 00:13:06;;;;;;;5.73;4.03;;;;;;;3.72;73.69;95640.94;1778975;80;21319;-68
2021/04/18 00:15:35;;;;;;;6.50;4.10;;;;;;;3.71;73.77;95643.55;1779404;81;21691;-68
2021/04/18 00:18:03;;;;;;;7.47;3.97;;;;;;;3.71;75.29;95646.16;1779346;81;21295;-68
2021/04/18 00:20:31;;;;;;;6.87;4.70;;;;;;;3.71;74.50;95643.55;1779255;81;21303;-69
2021/04/18 00:22:59;;;;;;;7.37;5.57;;;;;;;3.64;75.44;95640.87;1779650;81;21160;-68
2021/04/18 00:25:27;;;;;;;10.30;5.90;;;;;;;3.71;74.75;95637.89;1779373;81;21567;-68
2021/04/18 00:27:55;;;;;;;8.70;5.93;;;;;;;3.80;74.38;95634.47;1779444;81;21587;-68
2021/04/18 00:30:24;;;;;;;7.27;5.30;;;;;;;3.88;74.14;95637.60;1779461;81;21133;-68
2021/04/18 00:32:51;;;;;;;7.87;5.67;;;;;;;3.97;73.84;95632.00;1779414;81;21145;-68
2021/04/18 00:35:20;;;;;;;7.97;5.53;;;;;;;4.06;74.11;95636.00;1779349;81;21275;-68
2021/04/18 00:37:49;;;;;;;23.10;11.33;;;;;;;4.04;74.69;95629.89;1779247;81;21300;-68
2021/04/18 00:40:21;;;;;;;25.57;14.00;;;;;;;4.11;74.73;95621.23;1757610;81;21141;-68
2021/04/18 00:42:49;;;;;;;30.03;15.07;;;;;;;4.13;74.89;95616.88;1779400;81;21710;-68
2021/04/18 00:45:20;;;;;;;25.77;13.80;;;;;;;4.19;74.74;95619.98;1779180;81;21288;-68
2021/04/18 00:47:51;;;;;;;25.33;14.57;;;;;;;4.21;74.81;95616.92;1779510;80;21571;-68
2021/04/18 00:50:31;;;;;;;15.80;8.57;;;;;;;4.35;74.11;95617.89;1779282;80;21297;-68
2021/04/18 00:53:04;;;;;;;14.27;6.17;;;;;;;4.38;73.93;95606.14;1779133;81;21292;-68
2021/04/18 00:55:29;;;;;;;19.87;9.97;;;;;;;4.47;73.77;95613.17;1779301;81;21149;-68
2021/04/18 00:57:58;;;;;;;25.50;13.50;;;;;;;4.39;74.27;95610.96;1779435;81;21758;-68
2021/04/18 01:00:26;;;;;;;12.33;7.13;;;;;;;4.44;74.29;95610.11;1779306;80;21707;-68
2021/04/18 01:02:55;;;;;;;18.83;9.80;;;;;;;4.50;73.83;95601.42;1779352;81;21160;-68
2021/04/18 01:05:24;;;;;;;19.83;11.57;;;;;;;4.52;74.04;95610.15;1779400;81;21144;-68
2021/04/18 01:07:53;;;;;;;19.30;10.53;;;;;;;4.47;74.07;95612.73;1779151;81;21619;-68
2021/04/18 01:10:21;;;;;;;11.90;6.53;;;;;;;4.47;73.43;95608.81;1779653;81;21571;-68
2021/04/18 01:12:50;;;;;;;9.00;5.67;;;;;;;4.49;73.49;95609.70;1779302;81;21324;-68
2021/04/18 01:15:19;;;;;;;14.37;9.50;;;;;;;4.38;74.91;95614.41;1779326;81;21722;-68
2021/04/18 01:17:47;;;;;;;8.53;5.30;;;;;;;4.32;75.08;95611.34;1779514;81;21114;-68
2021/04/18 01:20:22;;;;;;;13.93;7.60;;;;;;;4.29;74.57;95610.03;1779118;80;21292;-68
2021/04/18 01:22:53;;;;;;;13.57;7.63;;;;;;;4.18;75.10;95606.02;1777877;80;21280;-68
2021/04/18 01:25:26;;;;;;;17.70;9.23;;;;;;;4.14;74.84;95610.80;1764168;81;21580;-68
2021/04/18 01:27:56;;;;;;;21.20;12.07;;;;;;;4.08;75.05;95610.74;1778437;80;21137;-68
2021/04/18 01:30:28;;;;;;;23.40;13.03;;;;;;;3.97;77.10;95608.07;1779404;81;21172;-68
2021/04/18 01:32:59;;;;;;;38.67;17.87;;;;;;;3.97;77.72;95608.07;1779711;81;21149;-68
2021/04/18 01:35:28;;;;;;;52.87;22.47;;;;;;;3.97;77.67;95606.77;1779310;80;22027;-68
2021/04/18 01:37:56;;;;;;;48.63;21.83;;;;;;;3.93;77.55;95605.02;1779272;81;21702;-68
2021/04/18 01:40:25;;;;;;;31.50;17.23;;;;;;;3.95;77.33;95603.27;1779790;81;21148;-68
2021/04/18 01:42:54;;;;;;;26.10;14.47;;;;;;;3.97;77.23;95604.16;1779232;81;21284;-68
2021/04/18 01:45:23;;;;;;;27.30;12.90;;;;;;;3.97;77.15;95605.90;1779302;81;21284;-68
2021/04/18 01:47:53;;;;;;;26.87;14.13;;;;;;;3.96;78.21;95605.47;1778969;80;21259;-68
2021/04/18 01:50:21;;;;;;;29.23;15.70;;;;;;;3.96;78.63;95609.38;1779341;81;21275;-68
2021/04/18 01:52:49;;;;;;;29.17;16.17;;;;;;;3.93;77.90;95607.62;1779189;81;21122;-68
2021/04/18 01:55:18;;;;;;;30.57;18.07;;;;;;;3.95;77.55;95611.53;1757568;81;21264;-68
2021/04/18 01:57:48;;;;;;;31.87;15.60;;;;;;;3.96;77.44;95597.64;1757973;81;21166;-68
2021/04/18 02:00:19;;;;;;;34.57;17.90;;;;;;;3.92;78.44;95603.25;1777480;80;21293;-68
2021/04/18 02:02:51;;;;;;;26.63;13.30;;;;;;;3.94;77.80;95601.97;1778727;80;21146;-68
2021/04/18 02:05:22;;;;;;;18.03;10.67;;;;;;;3.95;77.76;95603.70;1778797;80;21145;-68
2021/04/18 02:07:49;;;;;;;22.77;12.43;;;;;;;3.98;78.75;95594.58;1779595;81;21559;-68
2021/04/18 02:10:17;;;;;;;19.70;11.73;;;;;;;3.98;78.82;95595.88;1779123;80;21655;-68
2021/04/18 02:12:47;;;;;;;14.50;9.00;;;;;;;4.01;78.20;95593.31;1757658;81;21166;-68
2021/04/18 02:15:16;;;;;;;18.23;9.87;;;;;;;4.01;78.20;95594.19;1779486;81;21275;-68
2021/04/18 02:17:45;;;;;;;21.93;12.93;;;;;;;3.97;79.47;95594.15;1757379;81;21283;-68
2021/04/18 02:20:16;;;;;;;26.67;14.60;;;;;;;3.95;79.77;95599.34;1780310;80;21584;-68
2021/04/18 02:22:45;;;;;;;22.90;14.40;;;;;;;3.95;79.65;95600.66;1788129;80;21129;-68
2021/04/18 02:25:14;;;;;;;23.57;13.40;;;;;;;3.97;80.13;95594.15;1787819;80;21725;-68
2021/04/18 02:27:43;;;;;;;20.80;12.53;;;;;;;4.02;79.25;95590.70;1759553;80;21607;-68
2021/04/18 02:30:14;;;;;;;18.10;10.77;;;;;;;4.08;79.34;95588.55;1786308;80;21717;-68
2021/04/18 02:32:44;;;;;;;15.43;10.10;;;;;;;4.15;79.05;95587.73;1787501;80;21161;-68
2021/04/18 02:35:16;;;;;;;13.60;8.17;;;;;;;4.18;79.51;95592.09;1788026;80;21263;-68
2021/04/18 02:37:45;;;;;;;17.83;9.70;;;;;;;4.22;78.77;95588.66;1759254;80;21137;-68
2021/04/18 02:40:15;;;;;;;14.63;9.30;;;;;;;4.27;79.78;95592.16;1787872;80;21299;-68
2021/04/18 02:42:44;;;;;;;16.57;9.20;;;;;;;4.29;79.42;95592.61;1787818;80;21129;-68
2021/04/18 02:45:14;;;;;;;12.47;9.10;;;;;;;4.30;79.70;95592.17;1787707;80;21134;-68
2021/04/18 02:47:44;;;;;;;12.50;8.10;;;;;;;4.29;79.72;95593.92;1787887;80;21259;-68
2021/04/18 02:50:13;;;;;;;20.07;11.57;;;;;;;4.31;79.65;95590.89;1787896;80;21287;-68
2021/04/18 02:52:41;;;;;;;12.60;9.10;;;;;;;4.39;80.34;95592.67;1787799;80;21153;-68
2021/04/18 02:55:10;;;;;;;13.37;8.87;;;;;;;4.39;79.52;95590.92;1788031;80;21586;-68
2021/04/18 02:57:40;;;;;;;11.60;7.87;;;;;;;4.45;79.55;95583.11;1785548;80;21275;-68
2021/04/18 03:00:09;;;;;;;11.83;8.27;;;;;;;4.55;79.54;95584.89;1788106;80;21160;-68
2021/04/18 03:02:37;;;;;;;12.43;7.87;;;;;;;4.57;78.99;95578.38;1787831;80;21268;-68
2021/04/18 03:05:08;;;;;;;15.20;7.90;;;;;;;4.52;79.39;95584.89;1787989;80;21283;-68
2021/04/18 03:07:37;;;;;;;10.60;6.70;;;;;;;4.53;79.09;95571.38;1759317;80;21094;-69
2021/04/18 03:10:06;;;;;;;12.43;7.53;;;;;;;4.54;78.96;95576.62;1787843;80;21315;-68
2021/04/18 03:12:34;;;;;;;10.70;7.03;;;;;;;4.47;79.71;95577.91;1758802;80;21156;-69
2021/04/18 03:15:05;;;;;;;11.50;7.43;;;;;;;4.40;79.44;95580.91;1787801;80;21715;-68
2021/04/18 03:17:35;;;;;;;12.23;8.03;;;;;;;4.43;79.77;95577.44;1787985;80;21247;-68
2021/04/18 03:20:06;;;;;;;10.60;7.03;;;;;;;4.41;80.39;95573.94;1787265;80;21153;-69
2021/04/18 03:22:37;;;;;;;10.90;7.37;;;;;;;4.48;80.17;95578.33;1779317;80;21707;-69
2021/04/18 03:25:08;;;;;;;12.70;6.73;;;;;;;4.45;80.21;95580.49;1779898;81;21129;-69
2021/04/18 03:27:36;;;;;;;14.00;8.07;;;;;;;4.32;81.61;95581.31;1757389;81;21098;-69
2021/04/18 03:30:08;;;;;;;12.77;8.77;;;;;;;4.23;81.90;95571.66;1779455;81;21272;-69
2021/04/18 03:32:37;;;;;;;13.03;8.63;;;;;;;4.23;81.62;95574.72;1778016;80;21272;-69
2021/04/18 03:35:07;;;;;;;13.97;7.70;;;;;;;4.22;81.61;95575.59;1779152;81;21290;-69
2021/04/18 03:37:35;;;;;;;12.00;8.20;;;;;;;4.21;82.28;95576.03;1778977;81;21303;-69
2021/04/18 03:40:05;;;;;;;10.70;7.50;;;;;;;4.17;82.15;95576.00;1779271;81;21133;-68
2021/04/18 03:42:33;;;;;;;12.07;7.23;;;;;;;4.18;81.83;95574.69;1779354;81;21552;-68
2021/04/18 03:45:05;;;;;;;13.97;9.33;;;;;;;4.14;82.06;95582.52;1779423;81;21700;-68
2021/04/18 03:47:34;;;;;;;11.57;7.77;;;;;;;4.16;81.20;95582.07;1779178;81;21143;-69
2021/04/18 03:50:09;;;;;;;13.78;7.75;;;;;;;4.19;81.01;95579.50;1779725;81;21520;-69
2021/04/18 03:52:57;;;;;;;15.47;8.60;;;;;;;4.11;81.62;95572.93;1777436;80;21567;-69
2021/04/18 03:55:26;;;;;;;12.17;8.93;;;;;;;4.10;81.61;95576.38;1757460;81;21264;-69
2021/04/18 03:57:54;;;;;;;21.80;12.33;;;;;;;4.11;81.73;95573.80;1779813;81;21133;-69
2021/04/18 04:00:23;;;;;;;24.37;13.90;;;;;;;4.14;81.64;95579.47;1779587;80;21144;-68
2021/04/18 04:02:55;;;;;;;30.43;16.12;;;;;;;4.14;81.79;95576.86;1779235;80;21268;-68
2021/04/18 04:05:24;;;;;;;32.00;17.47;;;;;;;4.14;81.47;95581.22;1779350;80;21293;-68
2021/04/18 04:07:53;;;;;;;24.23;14.47;;;;;;;4.14;81.98;95578.16;1779377;81;21595;-68
2021/04/18 04:10:21;;;;;;;32.13;18.90;;;;;;;4.14;81.66;95576.86;1779465;81;21576;-68
2021/04/18 04:12:50;;;;;;;31.73;17.50;;;;;;;4.16;82.53;95582.97;1779289;81;21276;-68
2021/04/18 04:15:19;;;;;;;23.63;14.30;;;;;;;4.17;82.73;95575.56;1779759;80;21139;-68
2021/04/18 04:17:48;;;;;;;23.40;15.40;;;;;;;4.23;83.06;95579.50;1779611;81;21149;-68
2021/04/18 04:20:21;;;;;;;24.72;16.15;;;;;;;4.22;83.38;95583.43;1778537;80;21153;-68
2021/04/18 04:23:07;;;;;;;29.17;15.87;;;;;;;4.24;84.13;95584.31;1779239;81;21113;-71
2021/04/18 04:25:35;;;;;;;28.23;17.37;;;;;;;4.28;83.65;95586.06;1779385;80;21137;-71
2021/04/18 04:28:06;;;;;;;28.73;17.60;;;;;;;4.43;83.29;95585.27;1779572;81;21114;-71
2021/04/18 04:30:35;;;;;;;26.40;17.23;;;;;;;4.55;83.13;95586.64;1779344;81;21260;-68
2021/04/18 04:33:02;;;;;;;25.87;15.77;;;;;;;4.62;83.26;95590.16;1779546;81;21153;-68
2021/04/18 04:35:31;;;;;;;27.17;15.80;;;;;;;4.73;83.17;95588.45;1779337;81;21279;-68
2021/04/18 04:37:59;;;;;;;25.60;14.43;;;;;;;4.83;82.72;95591.54;1779560;80;21133;-68
2021/04/18 04:40:27;;;;;;;22.83;14.20;;;;;;;4.91;82.25;95585.02;1779352;80;21114;-68
2021/04/18 04:42:55;;;;;;;22.03;13.60;;;;;;;5.00;81.99;95578.53;1779410;81;21327;-68
2021/04/18 04:45:23;;;;;;;24.17;13.90;;;;;;;5.09;81.74;95575.95;1779491;81;21552;-68
2021/04/18 04:47:51;;;;;;;19.20;13.23;;;;;;;5.18;81.66;95576.38;1779550;81;21283;-68
2021/04/18 04:50:18;;;;;;;19.10;12.57;;;;;;;5.34;81.41;95575.56;1779458;81;21138;-68
2021/04/18 04:52:46;;;;;;;20.93;13.47;;;;;;;5.47;80.84;95571.62;1779217;80;21579;-68
2021/04/18 04:55:15;;;;;;;22.17;13.97;;;;;;;5.55;80.27;95575.14;1779619;81;21153;-68
2021/04/18 04:57:43;;;;;;;23.30;15.00;;;;;;;5.56;80.17;95572.94;1779267;80;21296;-69
2021/04/18 05:00:13;;;;;;;22.43;14.53;;;;;;;5.57;80.59;95573.40;1779343;80;21263;-69
2021/04/18 05:02:40;;;;;;;25.53;14.07;;;;;;;5.64;80.46;95568.16;1779606;81;21152;-69
2021/04/18 05:05:11;;;;;;;19.87;13.07;;;;;;;5.70;80.24;95571.20;1779350;81;21591;-68
2021/04/18 05:07:38;;;;;;;23.87;14.60;;;;;;;5.75;80.07;95571.21;1779504;81;21308;-69
2021/04/18 05:10:08;;;;;;;21.43;13.23;;;;;;;5.76;79.89;95575.12;1779633;80;21263;-68
2021/04/18 05:12:35;;;;;;;17.90;11.60;;;;;;;5.75;79.83;95575.14;1779406;80;21153;-69
2021/04/18 05:15:05;;;;;;;16.50;10.87;;;;;;;5.70;80.08;95577.75;1779280;81;21292;-69
2021/04/18 05:17:32;;;;;;;347.10;131.10;;;;;;;5.69;80.34;95579.05;1779396;81;21698;-69
2021/04/18 05:20:01;;;;;;;38.30;22.07;;;;;;;5.62;79.83;95580.37;1779573;81;21128;-69
2021/04/18 05:22:28;;;;;;;18.93;11.20;;;;;;;5.59;79.88;95579.48;1779251;80;21188;-69
2021/04/18 05:24:55;;;;;;;24.27;16.00;;;;;;;5.61;79.97;95587.77;1779400;81;21283;-69
2021/04/18 05:27:23;;;;;;;34.63;23.50;;;;;;;5.59;81.10;95585.61;1779281;81;21181;-69
2021/04/18 05:29:52;;;;;;;18.00;13.63;;;;;;;5.61;80.61;95590.39;1779653;81;21133;-69
2021/04/18 05:32:20;;;;;;;16.33;12.17;;;;;;;5.64;80.54;95589.52;1779501;81;21560;-69
2021/04/18 05:34:49;;;;;;;15.87;10.73;;;;;;;5.64;80.51;95587.80;1779208;81;21303;-69
2021/04/18 05:37:17;;;;;;;12.30;8.97;;;;;;;5.68;80.42;95581.24;1779305;81;21279;-69
2021/04/18 05:39:44;;;;;;;11.57;8.30;;;;;;;5.70;80.60;95588.23;1779100;81;21283;-69
2021/04/18 05:42:12;;;;;;;8.90;6.83;;;;;;;5.70;80.12;95584.74;1779382;81;21711;-69
2021/04/18 05:44:40;;;;;;;94.03;52.67;;;;;;;5.64;81.14;95581.66;1779344;81;21698;-69
2021/04/18 05:47:07;;;;;;;53.63;34.60;;;;;;;5.63;80.85;95579.48;1779608;80;21460;-69
2021/04/18 05:49:35;;;;;;;16.40;11.90;;;;;;;5.67;80.72;95583.00;1779303;80;21733;-69
2021/04/18 05:52:03;;;;;;;23.97;17.23;;;;;;;5.67;81.67;95579.07;1779422;81;21267;-69
2021/04/18 05:54:31;;;;;;;24.73;19.50;;;;;;;5.67;82.03;95581.69;1779112;80;21277;-69
2021/04/18 05:56:58;;;;;;;15.70;11.37;;;;;;;5.73;81.63;95580.81;1779288;81;21307;-68
2021/04/18 05:59:26;;;;;;;16.10;12.37;;;;;;;5.77;81.42;95575.98;1779282;81;21556;-68
2021/04/18 06:01:54;;;;;;;13.20;10.13;;;;;;;5.83;81.16;95576.00;1779569;81;21540;-68
2021/04/18 06:04:22;;;;;;;12.37;9.80;;;;;;;5.93;81.27;95572.50;1779290;81;21283;-68
2021/04/18 06:06:50;;;;;;;13.13;10.00;;;;;;;5.98;81.66;95577.33;1779257;81;21291;-68
2021/04/18 06:09:17;;;;;;;10.43;8.73;;;;;;;6.07;81.44;95571.19;1757623;81;21114;-68
2021/04/18 06:11:45;;;;;;;14.33;8.67;;;;;;;6.17;81.40;95574.67;1779364;81;21268;-68
2021/04/18 06:14:12;;;;;;;14.70;10.30;;;;;;;6.23;81.23;95572.06;1779237;81;21311;-68
2021/04/18 06:16:40;;;;;;;15.63;11.30;;;;;;;6.27;80.94;95573.36;1779504;81;21141;-69
2021/04/18 06:19:08;;;;;;;15.03;9.97;;;;;;;6.34;81.02;95570.27;1779439;81;21127;-69
2021/04/18 06:21:36;;;;;;;15.63;10.47;;;;;;;6.49;81.03;95573.29;1779174;81;21295;-68
2021/04/18 06:24:07;;;;;;;13.30;10.00;;;;;;;6.59;80.53;95573.69;1779264;81;21244;-69
2021/04/18 06:26:34;;;;;;;13.13;9.90;;;;;;;6.65;80.15;95572.78;1779348;81;21733;-69
2021/04/18 06:29:02;;;;;;;13.60;10.00;;;;;;;6.74;79.77;95570.59;1779362;81;21195;-69
2021/04/18 06:31:30;;;;;;;17.27;10.80;;;;;;;6.80;79.18;95565.30;1779323;81;21726;-69
2021/04/18 06:33:57;;;;;;;16.07;11.40;;;;;;;6.80;79.04;95564.86;1779430;81;21161;-69
2021/04/18 06:36:25;;;;;;;16.20;11.77;;;;;;;6.89;79.18;95566.58;1757300;81;21132;-69
2021/04/18 06:38:52;;;;;;;17.73;13.00;;;;;;;6.94;79.13;95566.98;1779506;80;21137;-69
2021/04/18 06:41:23;;;;;;;13.40;9.53;;;;;;;7.02;79.25;95568.70;1779268;81;21291;-69
2021/04/18 06:43:52;;;;;;;13.50;8.90;;;;;;;7.01;79.00;95573.08;1779396;81;21125;-69
2021/04/18 06:46:22;;;;;;;13.63;9.67;;;;;;;6.99;78.59;95569.59;1779361;81;21677;-69
2021/04/18 06:48:50;;;;;;;9.90;7.40;;;;;;;6.95;78.17;95562.60;1779374;81;21272;-69
2021/04/18 06:51:19;;;;;;;13.90;9.07;;;;;;;6.89;75.82;95560.89;1779205;81;21181;-69
2021/04/18 06:53:47;;;;;;;15.87;10.40;;;;;;;6.79;75.44;95568.81;1779315;81;21118;-69
2021/04/18 06:56:16;;;;;;;12.63;7.70;;;;;;;6.70;75.11;95563.16;1779657;80;21140;-69
2021/04/18 06:58:43;;;;;;;11.17;8.03;;;;;;;6.68;75.45;95570.18;1779184;81;21268;-69
2021/04/18 07:01:11;;;;;;;10.73;7.73;;;;;;;6.64;75.92;95570.61;1779228;81;21130;-69
2021/04/18 07:03:39;;;;;;;10.83;7.77;;;;;;;6.64;75.46;95574.55;1779265;81;21280;-68
2021/04/18 07:06:09;;;;;;;10.10;7.57;;;;;;;6.69;75.85;95577.16;1779197;81;21291;-68
2021/04/18 07:08:36;;;;;;;11.17;7.53;;;;;;;6.74;75.71;95574.08;1779088;81;21272;-69
2021/04/18 07:11:19;;;;;;;10.93;7.80;;;;;;;6.75;75.86;95574.94;1779049;81;21106;-69
2021/04/18 07:13:48;;;;;;;;;;;;;;;6.76;75.76;95581.50;1781868;81;21706;-69
2021/04/18 07:16:32;;;;;;;10.07;7.20;;;;;;;6.72;75.82;95583.69;1779345;81;20223;-69
2021/04/18 07:19:00;;;;;;;13.50;8.87;;;;;;;6.68;76.72;95583.28;1779305;81;21257;-69
2021/04/18 07:21:50;;;;;;;11.33;7.67;;;;;;;6.61;75.29;95584.19;1779567;81;21153;-68
2021/04/18 07:24:19;;;;;;;8.63;5.63;;;;;;;6.60;75.03;95586.35;1779414;81;21154;-68
2021/04/18 07:27:08;;;;;;;10.43;7.60;;;;;;;6.59;74.85;95582.86;1779444;81;21592;-68
2021/04/18 07:29:35;;;;;;;11.93;8.27;;;;;;;6.63;75.12;95583.75;1777230;80;21729;-68
2021/04/18 07:32:21;;;;;;;12.33;8.60;;;;;;;6.72;75.38;95589.80;1779241;81;21547;-69
2021/04/18 07:34:50;;;;;;;14.90;10.33;;;;;;;6.74;75.63;95593.73;1779217;81;21272;-68
2021/04/18 07:37:28;;;;;;;9.03;7.10;;;;;;;6.75;75.77;95590.23;1779306;80;21623;-68
2021/04/18 07:40:02;;;;;;;11.37;7.93;;;;;;;6.76;75.23;95588.50;1779108;81;21284;-68
2021/04/18 07:42:40;;;;;;;9.23;7.60;;;;;;;6.73;75.24;95594.63;1779282;80;21121;-68
2021/04/18 07:45:16;;;;;;;12.00;9.23;;;;;;;6.70;74.77;95592.89;1779448;81;21279;-68
2021/04/18 07:47:46;;;;;;;11.50;7.77;;;;;;;6.70;74.66;95589.38;1779135;80;21153;-69
2021/04/18 07:50:20;;;;;;;13.40;8.50;;;;;;;6.68;74.74;95593.78;1779249;81;21125;-68
2021/04/18 07:52:49;;;;;;;11.43;8.77;;;;;;;6.76;74.97;95600.30;1779293;81;21270;-69
2021/04/18 07:55:19;;;;;;;12.27;8.83;;;;;;;6.79;74.87;95601.59;1779347;81;21160;-69
2021/04/18 07:57:48;;;;;;;10.87;7.43;;;;;;;6.71;74.85;95597.25;1779450;81;21284;-68
2021/04/18 08:00:19;;;;;;;13.67;8.47;;;;;;;6.62;74.36;95602.95;1757715;81;21600;-69
2021/04/18 08:02:50;;;;;;;11.80;8.27;;;;;;;6.60;74.58;95596.84;1779439;81;21137;-68
2021/04/18 08:05:20;;;;;;;11.60;9.17;;;;;;;6.58;74.75;95601.23;1779454;81;21279;-68
2021/04/18 08:08:13;;;;;;;10.83;7.33;;;;;;;6.52;75.99;95603.41;1779162;81;21448;-68
2021/04/18 08:10:45;;;;;;;11.45;8.53;;;;;;;6.46;76.01;95595.58;1779274;81;21580;-68
2021/04/18 08:13:25;;;;;;;11.03;7.83;;;;;;;6.64;75.78;95599.89;1779415;81;21308;-68
2021/04/18 08:16:02;;;;;;;12.57;8.93;;;;;;;6.83;76.77;95601.99;1779261;81;21125;-68
2021/04/18 08:18:45;;;;;;;12.13;7.67;;;;;;;6.89;75.37;95599.37;1779279;81;21310;-68
2021/04/18 08:21:38;;;;;;;10.97;7.57;;;;;;;7.06;75.95;95603.23;1778594;80;21256;-68
2021/04/18 08:24:23;;;;;;;9.33;6.37;;;;;;;7.18;75.17;95603.14;1784845;80;21164;-68
2021/04/18 08:27:05;;;;;;;14.23;10.47;;;;;;;7.34;75.06;95596.08;1784000;80;21300;-68
2021/04/18 08:29:58;;;;;;;11.37;8.57;;;;;;;7.47;75.17;95592.48;1784560;80;21739;-68
2021/04/18 08:32:46;;;;;;;12.10;8.90;;;;;;;7.46;73.74;95593.38;1785793;80;21118;-68
2021/04/18 08:35:22;;;;;;;12.33;8.97;;;;;;;7.39;73.86;95589.49;1785003;80;21548;-68
2021/04/18 08:38:14;;;;;;;9.83;7.60;;;;;;;7.40;74.74;95590.78;1785156;80;21280;-68
2021/04/18 08:40:43;;;;;;;10.47;7.43;;;;;;;7.52;74.73;95588.52;1785040;80;21702;-69
2021/04/18 08:43:21;;;;;;;8.60;7.03;;;;;;;7.57;74.10;95592.85;1785091;80;21294;-68
2021/04/18 08:45:52;;;;;;;11.10;8.77;;;;;;;7.50;72.67;95587.66;1785388;80;21137;-69
2021/04/18 08:48:19;;;;;;;10.73;8.10;;;;;;;7.55;73.81;95591.98;1756720;80;21138;-68
2021/04/18 08:51:05;;;;;;;11.03;7.87;;;;;;;7.55;72.06;95590.67;1785123;80;21152;-68
2021/04/18 08:54:01;;;;;;;11.33;8.30;;;;;;;7.47;72.03;95581.98;1785412;80;21118;-69
2021/04/18 08:56:50;;;;;;;10.30;7.93;;;;;;;7.49;73.91;95579.36;1785239;80;21160;-69
2021/04/18 08:59:19;;;;;;;9.70;6.50;;;;;;;7.65;74.18;95573.55;1785325;80;21120;-68
2021/04/18 09:02:05;;;;;;;11.27;8.47;;;;;;;7.91;73.68;95562.41;1785440;80;21132;-68
2021/04/18 09:04:37;;;;;;;12.03;8.90;;;;;;;8.14;72.80;95556.93;1785259;80;21129;-68
2021/04/18 09:07:09;;;;;;;11.63;9.20;;;;;;;8.27;70.37;95551.10;1785459;80;21512;-68
2021/04/18 09:09:37;;;;;;;9.33;7.33;;;;;;;8.40;69.69;95551.42;1785414;80;21125;-68
2021/04/18 09:12:06;;;;;;;10.07;7.50;;;;;;;8.42;69.82;95540.91;1785167;80;21148;-68
2021/04/18 09:14:38;;;;;;;10.13;7.83;;;;;;;8.53;70.81;95541.64;1785101;80;21174;-68
2021/04/18 09:17:24;;;;;;;10.27;7.73;;;;;;;8.55;68.93;95541.63;1785251;80;21086;-69
2021/04/18 09:19:59;;;;;;;8.93;7.40;;;;;;;8.51;68.67;95545.17;1785128;80;21113;-68
2021/04/18 09:22:39;;;;;;;7.27;6.07;;;;;;;8.57;68.97;95542.05;1784389;80;21268;-68
2021/04/18 09:25:17;;;;;;;8.40;7.07;;;;;;;8.56;69.14;95536.33;1779189;81;21275;-68
2021/04/18 09:27:51;;;;;;;9.90;8.13;;;;;;;8.60;67.47;95538.50;1779341;81;21264;-68
2021/04/18 09:30:26;;;;;;;8.00;7.20;;;;;;;8.54;66.88;95540.77;1779369;81;21268;-68
2021/04/18 09:32:56;;;;;;;8.40;6.20;;;;;;;8.55;67.21;95539.00;1779539;81;21091;-68
2021/04/18 09:35:26;;;;;;;7.80;5.83;;;;;;;8.52;66.12;95537.73;1779642;81;21129;-68
2021/04/18 09:38:01;;;;;;;8.30;6.47;;;;;;;8.52;66.19;95537.73;1779335;81;21283;-68
2021/04/18 09:40:33;;;;;;;6.47;4.93;;;;;;;8.41;65.56;95529.94;1779500;81;21134;-68
2021/04/18 09:43:05;;;;;;;8.40;5.80;;;;;;;8.39;66.48;95529.05;1779496;81;21547;-68
2021/04/18 09:45:34;;;;;;;6.70;4.60;;;;;;;8.28;65.43;95529.63;1779118;80;21694;-68
2021/04/18 09:48:18;;;;;;;9.60;5.60;;;;;;;8.17;66.16;95525.80;1779498;81;21127;-69
2021/04/18 09:51:02;;;;;;;7.23;5.50;;;;;;;8.06;66.56;95525.89;1779814;81;21113;-68
2021/04/18 09:53:31;;;;;;;8.27;6.03;;;;;;;7.92;66.96;95530.42;1779296;81;21592;-69
2021/04/18 09:56:08;;;;;;;9.40;6.10;;;;;;;7.91;67.12;95520.78;1779397;81;21144;-68
2021/04/18 09:58:43;;;;;;;13.13;7.73;;;;;;;7.91;67.62;95528.66;1779296;81;21287;-68
2021/04/18 10:01:29;;;;;;;8.90;6.10;;;;;;;7.84;66.78;95527.87;1779134;81;21133;-69
2021/04/18 10:03:57;;;;;;;8.17;6.03;;;;;;;7.82;67.29;95523.52;1779411;81;21098;-68
2021/04/18 10:06:26;;;;;;;6.60;5.37;;;;;;;7.83;67.53;95526.56;1779199;81;21307;-69
2021/04/18 10:09:04;;;;;;;6.17;5.40;;;;;;;7.88;67.63;95519.50;1779228;81;21303;-68
2021/04/18 10:11:31;;;;;;;7.03;5.17;;;;;;;7.93;66.65;95523.83;1779798;81;21125;-69
2021/04/18 10:14:00;;;;;;;6.83;5.87;;;;;;;8.03;66.96;95520.67;1757558;81;21168;-69
2021/04/18 10:16:42;;;;;;;8.33;6.40;;;;;;;8.12;66.58;95523.67;1779689;81;21137;-69
2021/04/18 10:19:18;;;;;;;7.73;6.30;;;;;;;8.20;66.17;95522.69;1779494;81;21133;-69
2021/04/18 10:22:10;;;;;;;7.37;6.17;;;;;;;8.22;64.59;95526.17;1779045;81;21726;-68
2021/04/18 10:24:44;;;;;;;8.47;6.50;;;;;;;8.30;64.11;95527.41;1784185;80;21287;-69
2021/04/18 10:27:16;;;;;;;7.30;5.15;;;;;;;8.35;65.11;95525.59;1785283;80;21566;-68
2021/04/18 10:29:45;;;;;;;7.90;6.60;;;;;;;8.33;64.12;95529.13;1785278;80;21132;-69
2021/04/18 10:32:18;;;;;;;8.57;6.20;;;;;;;8.32;64.59;95529.58;1785070;80;21267;-68
2021/04/18 10:34:51;;;;;;;7.40;5.60;;;;;;;8.31;63.83;95528.27;1785250;80;21177;-69
2021/04/18 10:37:20;;;;;;;8.90;6.50;;;;;;;8.30;64.03;95527.41;1785206;80;21130;-69
2021/04/18 10:39:48;;;;;;;8.47;6.20;;;;;;;8.23;62.49;95524.41;1785335;80;21148;-68
2021/04/18 10:42:16;;;;;;;11.07;7.10;;;;;;;8.23;62.60;95521.33;1785001;80;21142;-68
2021/04/18 10:44:44;;;;;;;9.60;7.30;;;;;;;8.26;64.30;95528.77;1784966;80;21364;-68
2021/04/18 10:47:17;;;;;;;8.57;6.27;;;;;;;8.26;62.26;95515.62;1785245;80;21114;-68
2021/04/18 10:49:47;;;;;;;7.85;5.87;;;;;;;8.24;62.10;95522.23;1785127;80;21129;-68
2021/04/18 10:52:15;;;;;;;6.70;5.20;;;;;;;8.23;60.00;95517.84;1785322;80;21143;-68
2021/04/18 10:54:43;;;;;;;7.27;5.90;;;;;;;8.27;61.82;95520.88;1784815;80;21279;-69
2021/04/18 10:57:11;;;;;;;8.93;6.73;;;;;;;8.31;61.68;95527.82;1784957;80;21251;-68
2021/04/18 10:59:38;;;;;;;7.93;5.97;;;;;;;8.26;61.49;95535.34;1785307;80;21152;-68
2021/04/18 11:02:06;;;;;;;9.70;6.97;;;;;;;8.18;60.71;95533.66;1785044;80;21283;-68
2021/04/18 11:04:34;;;;;;;8.50;7.00;;;;;;;8.21;61.75;95536.27;1785067;80;21709;-68
2021/04/18 11:07:03;;;;;;;7.20;5.80;;;;;;;8.15;60.85;95546.83;1785220;80;21267;-68
2021/04/18 11:09:31;;;;;;;8.07;5.90;;;;;;;8.11;60.56;95543.80;1785137;80;21143;-69
2021/04/18 11:11:59;;;;;;;8.33;5.37;;;;;;;8.10;61.74;95539.89;1784981;80;21153;-68
2021/04/18 11:14:27;;;;;;;6.80;6.00;;;;;;;8.10;61.07;95543.38;1785059;80;21295;-68
2021/04/18 11:16:55;;;;;;;9.00;5.97;;;;;;;8.02;60.86;95546.08;1785009;80;21291;-68
2021/04/18 11:19:23;;;;;;;6.73;5.70;;;;;;;7.99;60.81;95543.94;1785029;80;21267;-68
2021/04/18 11:21:51;;;;;;;9.17;6.07;;;;;;;7.96;61.59;95545.26;1785124;80;21291;-69
2021/04/18 11:24:18;;;;;;;8.60;5.57;;;;;;;7.95;61.77;95551.41;1784850;80;21289;-68
2021/04/18 11:26:46;;;;;;;10.07;7.23;;;;;;;7.92;60.91;95547.50;1784887;80;21615;-68
2021/04/18 11:29:14;;;;;;;8.23;6.93;;;;;;;7.85;61.39;95556.32;1785136;80;21248;-68
2021/04/18 11:31:41;;;;;;;9.97;6.23;;;;;;;7.87;61.07;95562.44;1784946;80;21295;-68
2021/04/18 11:34:10;;;;;;;11.63;7.60;;;;;;;7.85;61.42;95555.87;1785080;80;21256;-68
2021/04/18 11:36:38;;;;;;;9.20;7.00;;;;;;;7.83;61.73;95553.69;1785409;80;21125;-68
2021/04/18 11:39:06;;;;;;;11.53;7.10;;;;;;;7.83;61.99;95554.14;1784895;80;21610;-68
2021/04/18 11:41:35;;;;;;;8.10;6.07;;;;;;;7.88;63.65;95557.59;1785083;80;21248;-69
2021/04/18 11:44:04;;;;;;;9.47;7.10;;;;;;;7.88;64.54;95557.15;1756885;80;21145;-69
2021/04/18 11:46:33;;;;;;;8.67;6.47;;;;;;;7.93;64.56;95559.74;1785029;80;21148;-69
2021/04/18 11:49:03;;;;;;;8.60;6.63;;;;;;;7.97;64.70;95562.78;1784727;80;21102;-68
2021/04/18 11:51:31;;;;;;;10.07;7.53;;;;;;;8.01;63.74;95557.49;1785113;80;21148;-69